ENZV

Stavanger , Sola Airport

Stavanger, Norway
METAR ENZV 172350Z 27007KT 9999 SCT025 BKN038 10/06 Q1021
Observed Flight Rules
Oct-17 @ 23:50 UTC (53 minutes ago) Visual Flight Rules
Wind Visibility Clouds
270° at 7 knots 10,000+ meters
  • Scattered at 2,500' AGL
  • Broken at 3,800' AGL
Temperatures Readings
Current 10°C / 50°F
Dewpoint 6°C / 43°F
Humidity 76%
Altimeter 30.15" Hg
Pressure 1021 hPa
Elevation 9
METAR ENZV 172350Z 27007KT 9999 SCT025 BKN038 10/06 Q1021
Observed Flight Rules
Oct-17 @ 23:50 UTC
(53 minutes ago)
VFR
Wind Visibility
270° at 7 knots 10,000+ meters
Clouds
  • Scattered at 2,500' AGL
  • Broken at 3,800' AGL
Temperature Dewpoint
10°C / 50°F 6°C / 43°F
Humidity Altimeter Pressure
76% 30.15" Hg 1021 hPa